createdAt,value
2018-05-03T00:00:55.041Z,12.19
2018-05-03T00:01:54.910Z,12.19
2018-05-03T00:02:55.280Z,12.26
2018-05-03T00:03:55.291Z,12.11
2018-05-03T00:04:55.714Z,12.16
2018-05-03T00:05:55.908Z,12.22
2018-05-03T00:06:55.858Z,12.2
2018-05-03T00:07:55.669Z,12.1
2018-05-03T00:08:55.906Z,12.05
2018-05-03T00:09:56.349Z,12.08
2018-05-03T00:10:56.117Z,12.16
2018-05-03T00:11:56.438Z,12.1
2018-05-03T00:12:56.432Z,12.1
2018-05-03T00:13:57.237Z,12.11
2018-05-03T00:14:56.743Z,12.11
2018-05-03T00:15:56.571Z,12.11
2018-05-03T00:16:57.312Z,12.15
2018-05-03T00:17:57.067Z,12.05
2018-05-03T00:18:57.274Z,12.1
2018-05-03T00:19:57.526Z,12.08
2018-05-03T00:20:57.615Z,12.19
2018-05-03T00:21:57.640Z,12.11
2018-05-03T00:22:57.413Z,12.1
2018-05-03T00:23:57.126Z,12.08
2018-05-03T00:24:57.470Z,12.15
2018-05-03T00:25:57.728Z,12.08
2018-05-03T00:26:57.467Z,12.08
2018-05-03T00:27:57.681Z,12.15
2018-05-03T00:28:58.181Z,12.15
2018-05-03T00:29:58.325Z,12.15
2018-05-03T00:30:58.508Z,12.07
2018-05-03T00:31:58.786Z,12.1
2018-05-03T00:32:58.728Z,12.13
2018-05-03T00:33:59.161Z,12.05
2018-05-03T00:34:59.186Z,12.05
2018-05-03T00:35:59.133Z,12.04
2018-05-03T00:36:59.720Z,12.05
2018-05-03T00:37:59.176Z,12.04
2018-05-03T00:38:59.481Z,12.11
2018-05-03T00:39:59.876Z,12.08
2018-05-03T00:41:00.207Z,12.13
2018-05-03T00:42:00.289Z,12.1
2018-05-03T00:43:00.252Z,12.1
2018-05-03T00:44:00.257Z,12.07
2018-05-03T00:44:59.952Z,12.1
2018-05-03T00:46:00.501Z,12.08
2018-05-03T00:47:00.459Z,12.1
2018-05-03T00:48:00.870Z,12.13
2018-05-03T00:49:01.641Z,12.19
2018-05-03T00:50:01.170Z,12.11
2018-05-03T00:51:01.477Z,12.04
2018-05-03T00:52:01.233Z,12.08
2018-05-03T00:53:01.404Z,12.05
2018-05-03T00:54:01.432Z,12.01
2018-05-03T00:55:01.556Z,12.07
2018-05-03T00:56:01.772Z,12.07
2018-05-03T00:57:02.583Z,12.05
2018-05-03T00:58:02.233Z,12.11
2018-05-03T00:59:02.875Z,12.03
2018-05-03T01:00:17.024Z,12.04
2018-05-03T01:01:03.055Z,12.11
2018-05-03T01:02:03.467Z,12.05
2018-05-03T01:03:03.876Z,12.07
2018-05-03T01:04:04.044Z,12.05
2018-05-03T01:05:04.736Z,12.04
2018-05-03T01:06:05.218Z,12.07
2018-05-03T01:07:05.229Z,12.05
2018-05-03T01:08:04.992Z,12.07
2018-05-03T01:09:05.394Z,12.03
2018-05-03T01:10:05.734Z,12.05
2018-05-03T01:11:05.880Z,12.08
2018-05-03T01:12:06.269Z,12.03
2018-05-03T01:13:06.039Z,12.1
2018-05-03T01:14:06.446Z,12.07
2018-05-03T01:15:06.548Z,12.03
2018-05-03T01:16:06.324Z,12.07
2018-05-03T01:17:06.534Z,12.1
2018-05-03T01:18:06.544Z,12.1
2018-05-03T01:19:06.419Z,12.1
2018-05-03T01:20:06.899Z,12.15
2018-05-03T01:21:06.894Z,12.11
2018-05-03T01:22:06.362Z,12.05
2018-05-03T01:23:06.683Z,12.04
2018-05-03T01:24:07.107Z,12.01
2018-05-03T01:25:07.068Z,12.03
2018-05-03T01:26:07.255Z,11.91
2018-05-03T01:27:07.396Z,12.05
2018-05-03T01:28:07.795Z,11.89
2018-05-03T01:29:08.231Z,11.94
2018-05-03T01:30:08.264Z,11.89
2018-05-03T01:31:09.066Z,12.08
2018-05-03T01:32:08.542Z,12
2018-05-03T01:33:08.534Z,12
2018-05-03T01:34:09.395Z,11.97
2018-05-03T01:35:09.652Z,11.88
2018-05-03T01:36:09.339Z,12.05
2018-05-03T01:37:09.651Z,11.89
2018-05-03T01:38:09.680Z,12.03
2018-05-03T01:39:09.687Z,12.04
2018-05-03T01:40:10.187Z,11.88
2018-05-03T01:41:09.844Z,11.94
2018-05-03T01:42:10.145Z,11.98
2018-05-03T01:43:10.821Z,11.95
2018-05-03T01:44:10.692Z,12.05
2018-05-03T01:45:11.342Z,12
2018-05-03T01:46:11.089Z,11.95
2018-05-03T01:47:11.324Z,12.01
2018-05-03T01:48:11.103Z,11.91
2018-05-03T01:49:11.244Z,11.91
2018-05-03T01:50:11.812Z,11.88
2018-05-03T01:51:11.829Z,11.95
2018-05-03T01:52:11.980Z,11.88
2018-05-03T01:53:12.683Z,11.94
2018-05-03T01:54:12.657Z,11.88
2018-05-03T01:55:12.804Z,11.82
2018-05-03T01:56:12.941Z,11.88
2018-05-03T01:57:12.967Z,11.81
2018-05-03T01:58:13.451Z,11.79
2018-05-03T01:59:13.476Z,11.85
2018-05-03T02:00:25.670Z,11.86
2018-05-03T02:01:13.606Z,11.85
2018-05-03T02:02:13.244Z,11.86
2018-05-03T02:03:13.649Z,11.79
2018-05-03T02:04:13.692Z,11.84
2018-05-03T02:05:13.851Z,11.89
2018-05-03T02:06:14.514Z,11.88
2018-05-03T02:07:14.899Z,11.89
2018-05-03T02:08:14.910Z,11.86
2018-05-03T02:09:14.938Z,11.88
2018-05-03T02:10:15.708Z,11.84
2018-05-03T02:11:15.110Z,11.85
2018-05-03T02:12:15.147Z,12.01
2018-05-03T02:13:15.208Z,11.84
2018-05-03T02:14:15.701Z,11.79
2018-05-03T02:15:16.174Z,11.76
2018-05-03T02:16:15.680Z,11.82
2018-05-03T02:17:15.717Z,11.85
2018-05-03T02:18:15.861Z,11.86
2018-05-03T02:19:15.779Z,11.84
2018-05-03T02:20:15.812Z,11.75
2018-05-03T02:21:16.024Z,11.88
2018-05-03T02:22:15.436Z,11.81
2018-05-03T02:23:15.894Z,11.91
2018-05-03T02:24:16.012Z,11.84
2018-05-03T02:25:15.703Z,11.76
2018-05-03T02:26:16.166Z,11.84
2018-05-03T02:27:16.568Z,11.81
2018-05-03T02:28:16.626Z,11.85
2018-05-03T02:29:16.224Z,11.86
2018-05-03T02:30:16.967Z,11.79
2018-05-03T02:31:16.968Z,11.88
2018-05-03T02:32:17.014Z,11.82
2018-05-03T02:33:16.754Z,11.82
2018-05-03T02:34:16.680Z,11.73
2018-05-03T02:35:16.989Z,11.88
2018-05-03T02:36:17.321Z,11.84
2018-05-03T02:37:18.048Z,11.81
2018-05-03T02:38:18.193Z,11.82
2018-05-03T02:39:18.195Z,11.86
2018-05-03T02:40:18.471Z,11.89
2018-05-03T02:41:18.689Z,11.88
2018-05-03T02:42:19.224Z,11.88
2018-05-03T02:43:19.177Z,11.89
2018-05-03T02:44:19.352Z,11.78
2018-05-03T02:45:19.688Z,11.79
2018-05-03T02:46:19.925Z,11.81
2018-05-03T02:47:19.161Z,11.85
2018-05-03T02:48:19.835Z,11.89
2018-05-03T02:49:19.882Z,11.81
2018-05-03T02:50:19.706Z,11.88
2018-05-03T02:51:19.898Z,11.86
2018-05-03T02:52:20.608Z,11.84
2018-05-03T02:53:20.636Z,11.86
2018-05-03T02:54:20.639Z,11.86
2018-05-03T02:55:20.168Z,11.86
2018-05-03T02:56:20.683Z,11.88
2018-05-03T02:57:20.717Z,11.75
2018-05-03T02:58:20.515Z,11.89
2018-05-03T02:59:20.922Z,11.88
2018-05-03T03:00:20.939Z,11.79
2018-05-03T03:01:21.466Z,11.88
2018-05-03T03:02:22.222Z,11.91
2018-05-03T03:03:21.943Z,11.85
2018-05-03T03:04:21.674Z,11.85
2018-05-03T03:05:21.836Z,11.89
2018-05-03T03:06:21.983Z,11.85
2018-05-03T03:07:22.094Z,11.81
2018-05-03T03:08:22.376Z,11.79
2018-05-03T03:09:22.827Z,11.75
2018-05-03T03:10:22.819Z,11.79
2018-05-03T03:11:22.866Z,11.81
2018-05-03T03:12:23.305Z,11.75
2018-05-03T03:13:23.219Z,11.75
2018-05-03T03:14:23.936Z,11.73
2018-05-03T03:15:23.905Z,11.78
2018-05-03T03:16:23.944Z,11.68
2018-05-03T03:17:23.965Z,11.68
2018-05-03T03:18:23.730Z,11.73
2018-05-03T03:19:24.033Z,11.73
2018-05-03T03:20:24.449Z,11.63
2018-05-03T03:21:24.820Z,11.67
2018-05-03T03:22:24.856Z,11.67
2018-05-03T03:23:24.875Z,11.64
2018-05-03T03:24:25.029Z,11.61
2018-05-03T03:25:25.448Z,11.59
2018-05-03T03:26:25.621Z,11.63
2018-05-03T03:27:25.753Z,11.56
2018-05-03T03:28:26.355Z,11.51
2018-05-03T03:29:26.345Z,11.51
2018-05-03T03:30:25.821Z,11.42
2018-05-03T03:31:26.473Z,11.39
2018-05-03T03:32:26.441Z,11.38
2018-05-03T03:33:26.470Z,11.21
2018-05-03T03:34:26.596Z,11.15
2018-05-03T03:35:26.971Z,11.18
2018-05-03T03:36:26.850Z,11.09
2018-05-03T03:37:27.238Z,11.13
2018-05-03T03:38:27.250Z,11.13
2018-05-03T03:39:27.119Z,11.06
2018-05-03T03:40:27.287Z,11.1
2018-05-03T03:41:27.285Z,11.02
2018-05-03T03:42:27.612Z,11
2018-05-03T03:43:27.633Z,11.02
2018-05-03T03:44:27.987Z,11
2018-05-03T03:45:27.999Z,10.94
2018-05-03T03:46:28.039Z,10.95
2018-05-03T03:47:28.447Z,10.85
2018-05-03T03:48:28.460Z,10.8
2018-05-03T03:49:28.616Z,10.66
2018-05-03T03:50:28.636Z,10.69
2018-05-03T03:51:28.849Z,10.69
2018-05-03T03:52:29.280Z,10.7
2018-05-03T03:53:29.140Z,10.73
2018-05-03T03:54:29.317Z,10.77
2018-05-03T03:55:29.779Z,10.88
2018-05-03T03:56:29.892Z,10.75
2018-05-03T03:57:30.651Z,10.8
2018-05-03T03:58:30.518Z,10.85
2018-05-03T03:59:30.915Z,10.88
2018-05-03T04:00:31.081Z,10.91
2018-05-03T04:01:31.455Z,10.95
2018-05-03T04:02:31.817Z,11
2018-05-03T04:03:31.853Z,11
2018-05-03T04:04:31.860Z,11.13
2018-05-03T04:05:31.902Z,11.03
2018-05-03T04:06:32.085Z,11.15
2018-05-03T04:07:31.956Z,11.18
2018-05-03T04:08:32.073Z,11.24
2018-05-03T04:09:32.026Z,11.24
2018-05-03T04:10:32.057Z,11.23
2018-05-03T04:11:32.174Z,11.31
2018-05-03T04:12:32.112Z,11.27
2018-05-03T04:13:32.131Z,11.33
2018-05-03T04:14:32.607Z,11.34
2018-05-03T04:15:32.630Z,11.43
2018-05-03T04:16:32.844Z,11.42
2018-05-03T04:17:33.135Z,11.48
2018-05-03T04:18:33.587Z,11.49
2018-05-03T04:19:33.793Z,11.48
2018-05-03T04:20:33.840Z,11.56
2018-05-03T04:21:33.596Z,11.46
2018-05-03T04:22:34.709Z,11.48
2018-05-03T04:23:34.905Z,11.59
2018-05-03T04:24:34.914Z,11.6
2018-05-03T04:25:34.942Z,11.73
2018-05-03T04:26:35.384Z,11.71
2018-05-03T04:27:35.309Z,11.76
2018-05-03T04:28:36.072Z,11.76
2018-05-03T04:29:35.802Z,11.79
2018-05-03T04:30:36.525Z,11.86
2018-05-03T04:31:37.004Z,11.82
2018-05-03T04:32:36.763Z,11.73
2018-05-03T04:33:37.500Z,11.73
2018-05-03T04:34:37.932Z,11.76
2018-05-03T04:35:37.477Z,11.75
2018-05-03T04:36:37.762Z,11.84
2018-05-03T04:37:37.516Z,11.88
2018-05-03T04:38:37.813Z,11.76
2018-05-03T04:39:38.114Z,11.86
2018-05-03T04:40:37.785Z,11.86
2018-05-03T04:41:38.528Z,11.86
2018-05-03T04:42:38.611Z,11.85
2018-05-03T04:43:38.838Z,11.79
2018-05-03T04:44:38.844Z,11.84
2018-05-03T04:45:38.585Z,11.84
2018-05-03T04:46:38.350Z,11.94
2018-05-03T04:47:38.823Z,11.97
2018-05-03T04:48:39.351Z,12.05
2018-05-03T04:49:39.338Z,12
2018-05-03T04:50:39.645Z,12.01
2018-05-03T04:51:40.104Z,12.01
2018-05-03T04:52:40.321Z,12.1
2018-05-03T04:53:40.798Z,12.04
2018-05-03T04:54:41.073Z,12.15
2018-05-03T04:55:41.259Z,12.22
2018-05-03T04:56:41.780Z,12.25
2018-05-03T04:57:41.817Z,12.29
2018-05-03T04:58:41.842Z,12.37
2018-05-03T04:59:41.612Z,12.33
2018-05-03T05:00:42.340Z,12.31
2018-05-03T05:01:42.611Z,12.36
2018-05-03T05:02:42.108Z,12.4
2018-05-03T05:03:42.559Z,12.37
2018-05-03T05:04:43.296Z,12.4
2018-05-03T05:05:43.731Z,12.47
2018-05-03T05:06:43.723Z,12.44
2018-05-03T05:07:43.965Z,12.59
2018-05-03T05:08:44.154Z,12.63
2018-05-03T05:09:44.580Z,12.71
2018-05-03T05:10:44.075Z,12.83
2018-05-03T05:11:44.373Z,12.89
2018-05-03T05:12:44.848Z,12.89
2018-05-03T05:13:45.005Z,12.86
2018-05-03T05:14:45.064Z,12.92
2018-05-03T05:15:44.819Z,12.84
2018-05-03T05:16:45.112Z,12.92
2018-05-03T05:17:45.137Z,12.96
2018-05-03T05:18:45.354Z,13.07
2018-05-03T05:19:45.820Z,13.07
2018-05-03T05:20:45.591Z,13.09
2018-05-03T05:21:45.893Z,13.11
2018-05-03T05:22:45.406Z,13.16
2018-05-03T05:23:46.334Z,13.14
2018-05-03T05:24:46.160Z,13.16
2018-05-03T05:25:45.909Z,13.11
2018-05-03T05:26:46.245Z,13.13
2018-05-03T05:27:46.196Z,13.19
2018-05-03T05:28:46.653Z,13.24
2018-05-03T05:29:46.449Z,13.31
2018-05-03T05:30:46.580Z,13.45
2018-05-03T05:31:46.733Z,13.48
2018-05-03T05:32:47.650Z,13.57
2018-05-03T05:33:47.486Z,13.55
2018-05-03T05:34:47.842Z,13.72
2018-05-03T05:35:47.840Z,13.83
2018-05-03T05:36:48.004Z,13.97
2018-05-03T05:37:48.037Z,13.91
2018-05-03T05:38:48.132Z,14.01
2018-05-03T05:39:48.541Z,14.08
2018-05-03T05:40:48.101Z,14.09
2018-05-03T05:41:48.591Z,14.16
2018-05-03T05:42:48.818Z,14.12
2018-05-03T05:43:49.321Z,14.12
2018-05-03T05:44:48.617Z,14.02
2018-05-03T05:45:49.062Z,14.09
2018-05-03T05:46:48.929Z,14.08
2018-05-03T05:47:48.682Z,13.95
2018-05-03T05:48:49.200Z,13.95
2018-05-03T05:49:49.534Z,13.91
2018-05-03T05:50:49.516Z,13.93
2018-05-03T05:51:49.593Z,13.9
2018-05-03T05:52:49.578Z,13.94
2018-05-03T05:53:49.615Z,13.97
2018-05-03T05:54:49.385Z,14.01
2018-05-03T05:55:49.378Z,14.15
2018-05-03T05:56:49.747Z,14.21
2018-05-03T05:57:49.885Z,14.33
2018-05-03T05:58:49.916Z,14.53
2018-05-03T05:59:49.824Z,14.66
2018-05-03T06:00:50.522Z,14.8
2018-05-03T06:01:50.422Z,15.12
2018-05-03T06:02:50.649Z,15.35
2018-05-03T06:03:50.234Z,15.58
2018-05-03T06:04:50.651Z,15.78
2018-05-03T06:05:50.750Z,15.96
2018-05-03T06:06:51.182Z,16.26
2018-05-03T06:07:51.596Z,16.37
2018-05-03T06:08:51.342Z,16.47
2018-05-03T06:09:52.012Z,16.48
2018-05-03T06:10:51.787Z,16.57
2018-05-03T06:11:51.851Z,16.55
2018-05-03T06:12:52.844Z,16.57
2018-05-03T06:13:52.633Z,16.59
2018-05-03T06:14:53.035Z,16.65
2018-05-03T06:15:53.219Z,16.49
2018-05-03T06:16:52.716Z,16.36
2018-05-03T06:17:52.998Z,16.32
2018-05-03T06:18:53.000Z,16.27
2018-05-03T06:19:53.387Z,16.21
2018-05-03T06:20:53.803Z,16.17
2018-05-03T06:21:53.830Z,16.11
2018-05-03T06:22:53.865Z,15.95
2018-05-03T06:23:54.036Z,15.88
2018-05-03T06:24:54.509Z,15.65
2018-05-03T06:25:54.679Z,15.58
2018-05-03T06:26:54.315Z,15.41
2018-05-03T06:27:54.213Z,15.41
2018-05-03T06:28:54.684Z,15.19
2018-05-03T06:29:54.828Z,15.2
2018-05-03T06:30:55.271Z,15.13
2018-05-03T06:31:55.341Z,15.05
2018-05-03T06:32:55.449Z,15.16
2018-05-03T06:33:55.591Z,15.04
2018-05-03T06:34:55.385Z,15.1
2018-05-03T06:35:55.408Z,15.05
2018-05-03T06:36:56.045Z,15.07
2018-05-03T06:37:56.195Z,15.1
2018-05-03T06:38:55.956Z,15.15
2018-05-03T06:39:56.645Z,15.12
2018-05-03T06:40:56.619Z,15.07
2018-05-03T06:41:57.035Z,15.16
2018-05-03T06:42:56.509Z,15.2
2018-05-03T06:43:57.063Z,15.23
2018-05-03T06:44:57.241Z,15.26
2018-05-03T06:45:58.007Z,15.34
2018-05-03T06:46:57.779Z,15.43
2018-05-03T06:47:57.786Z,15.41
2018-05-03T06:48:57.803Z,15.49
2018-05-03T06:49:57.853Z,15.49
2018-05-03T06:50:58.341Z,15.53
2018-05-03T06:51:58.093Z,15.49
2018-05-03T06:52:58.055Z,15.41
2018-05-03T06:53:58.496Z,15.38
2018-05-03T06:54:58.642Z,15.23
2018-05-03T06:55:58.666Z,15.18
2018-05-03T06:56:58.703Z,15.2
2018-05-03T06:57:58.740Z,15.25
2018-05-03T06:58:58.504Z,15.13
2018-05-03T06:59:59.265Z,15.23
2018-05-03T07:00:59.028Z,15.23
2018-05-03T07:01:58.918Z,15.19
2018-05-03T07:03:00.065Z,15.22
2018-05-03T07:03:59.357Z,15.2
2018-05-03T07:04:59.630Z,15.22
2018-05-03T07:05:59.643Z,15.12
2018-05-03T07:07:00.038Z,15.13
2018-05-03T07:07:59.380Z,15.18
2018-05-03T07:08:59.466Z,15.19
2018-05-03T07:10:00.942Z,15.38
2018-05-03T07:10:59.892Z,15.4
2018-05-03T07:12:00.434Z,15.41
2018-05-03T07:12:59.814Z,15.63
2018-05-03T07:14:00.517Z,15.7
2018-05-03T07:15:00.809Z,15.91
2018-05-03T07:16:00.557Z,16.13
2018-05-03T07:17:00.357Z,16.33
2018-05-03T07:18:00.494Z,16.58
2018-05-03T07:19:00.649Z,16.87
2018-05-03T07:20:00.753Z,17.18
2018-05-03T07:21:00.753Z,17.86
2018-05-03T07:22:00.777Z,18.56
2018-05-03T07:23:00.904Z,18.86
2018-05-03T07:24:00.745Z,18.9
2018-05-03T07:25:01.221Z,18.86
2018-05-03T07:26:01.250Z,18.76
2018-05-03T07:27:00.860Z,18.6
2018-05-03T07:28:01.501Z,18.57
2018-05-03T07:29:01.732Z,18.41
2018-05-03T07:30:01.962Z,18.35
2018-05-03T07:31:01.722Z,18.21
2018-05-03T07:32:01.745Z,18.11
2018-05-03T07:33:02.039Z,18.23
2018-05-03T07:34:01.795Z,18.32
2018-05-03T07:35:02.103Z,18.35
2018-05-03T07:36:02.254Z,18.45
2018-05-03T07:37:02.293Z,18.49
2018-05-03T07:38:02.750Z,18.6
2018-05-03T07:39:02.476Z,18.78
2018-05-03T07:40:02.829Z,19.02
2018-05-03T07:41:02.869Z,19.43
2018-05-03T07:42:02.747Z,20.07
2018-05-03T07:43:03.075Z,20.64
2018-05-03T07:44:03.267Z,21.04
2018-05-03T07:45:03.204Z,21.21
2018-05-03T07:46:03.123Z,21.31
2018-05-03T07:47:03.559Z,21.23
2018-05-03T07:48:04.811Z,21.12
2018-05-03T07:49:03.785Z,20.96
2018-05-03T07:50:04.059Z,20.78
2018-05-03T07:51:03.832Z,20.53
2018-05-03T07:52:03.545Z,20.3
2018-05-03T07:53:03.815Z,20.37
2018-05-03T07:54:03.887Z,20.07
2018-05-03T07:55:04.172Z,19.87
2018-05-03T07:56:04.592Z,19.87
2018-05-03T07:57:04.351Z,19.95
2018-05-03T07:58:04.726Z,20.25
2018-05-03T07:59:04.629Z,20.46
2018-05-03T08:00:26.942Z,20.79
2018-05-03T08:01:06.681Z,21.01
2018-05-03T08:02:07.495Z,21.37
2018-05-03T08:03:05.471Z,22.18
2018-05-03T08:04:05.564Z,23.57
2018-05-03T08:05:05.626Z,25.22
2018-05-03T08:06:05.595Z,26.74
2018-05-03T08:07:06.071Z,28.35
2018-05-03T08:08:06.057Z,29.82
2018-05-03T08:09:06.488Z,31.21
2018-05-03T08:10:06.620Z,32.16
2018-05-03T08:11:06.381Z,32.93
2018-05-03T08:12:06.332Z,33.61
2018-05-03T08:13:06.675Z,34.36
2018-05-03T08:14:07.125Z,34.61
2018-05-03T08:15:07.258Z,34.74
2018-05-03T08:16:07.438Z,34.74
2018-05-03T08:17:07.329Z,34.69
2018-05-03T08:18:07.258Z,35.2
2018-05-03T08:19:07.039Z,35.62
2018-05-03T08:20:07.472Z,36.12
2018-05-03T08:21:07.807Z,35.96
2018-05-03T08:22:07.851Z,34.72
2018-05-03T08:23:07.921Z,33.71
2018-05-03T08:24:08.748Z,32.71
2018-05-03T08:25:08.809Z,32.25
2018-05-03T08:26:08.388Z,31.88
2018-05-03T08:27:08.365Z,31.53
2018-05-03T08:28:08.229Z,31.55
2018-05-03T08:29:08.710Z,31.45
2018-05-03T08:30:08.933Z,31.1
2018-05-03T08:31:09.119Z,31.34
2018-05-03T08:32:09.548Z,31.52
2018-05-03T08:33:09.934Z,32.19
2018-05-03T08:34:10.366Z,32.9
2018-05-03T08:35:10.434Z,33.92
2018-05-03T08:36:10.589Z,34.45
2018-05-03T08:37:11.050Z,34.79
2018-05-03T08:38:10.783Z,35.09
2018-05-03T08:39:10.915Z,35.43
2018-05-03T08:40:11.499Z,35.5
2018-05-03T08:41:11.660Z,35.5
2018-05-03T08:42:11.625Z,35.62
2018-05-03T08:43:12.138Z,35.83
2018-05-03T08:44:11.638Z,35.98
2018-05-03T08:45:12.081Z,36.12
2018-05-03T08:46:12.442Z,36.09
2018-05-03T08:47:12.429Z,36.09
2018-05-03T08:48:12.581Z,36.52
2018-05-03T08:49:12.682Z,37.02
2018-05-03T08:50:12.392Z,37.39
2018-05-03T08:51:12.417Z,37.96
2018-05-03T08:52:13.259Z,38.28
2018-05-03T08:53:12.960Z,38.5
2018-05-03T08:54:13.090Z,38.42
2018-05-03T08:55:13.798Z,38.37
2018-05-03T08:56:13.955Z,38.56
2018-05-03T08:57:14.156Z,38.8
2018-05-03T08:58:14.117Z,38.47
2018-05-03T08:59:14.401Z,38.36
2018-05-03T09:00:28.836Z,38.55
2018-05-03T09:01:15.602Z,38.92
2018-05-03T10:00:16.496Z,35.45
2018-05-03T10:01:15.631Z,35.53
2018-05-03T10:02:15.308Z,34.94
2018-05-03T10:03:15.426Z,33.9
2018-05-03T10:04:16.392Z,32.54
2018-05-03T10:05:16.333Z,31.43
2018-05-03T10:06:16.739Z,30.91
2018-05-03T10:07:16.738Z,31.19
2018-05-03T10:08:16.542Z,31.58
2018-05-03T10:09:16.840Z,32.28
2018-05-03T10:10:16.844Z,32.91
2018-05-03T10:11:17.497Z,33.69
2018-05-03T10:12:18.015Z,34.37
2018-05-03T10:13:18.115Z,35.09
2018-05-03T10:14:17.996Z,35.55
2018-05-03T10:15:18.027Z,36.09
2018-05-03T10:16:18.200Z,36.25
2018-05-03T10:17:18.230Z,36.21
2018-05-03T10:18:18.383Z,35.98
2018-05-03T10:19:18.822Z,35.99
2018-05-03T10:20:19.133Z,36.12
2018-05-03T10:21:19.194Z,36.37
2018-05-03T10:22:19.829Z,36.75
2018-05-03T10:23:19.917Z,36.93
2018-05-03T10:24:20.018Z,36.99
2018-05-03T10:25:20.155Z,37.07
2018-05-03T10:26:20.161Z,36.96
2018-05-03T10:27:20.265Z,36.73
2018-05-03T10:28:20.706Z,36.73
2018-05-03T10:29:20.176Z,37.05
2018-05-03T10:30:20.601Z,36.9
2018-05-03T10:31:20.841Z,36.97
2018-05-03T10:32:20.666Z,37.24
2018-05-03T10:33:20.882Z,37.22
2018-05-03T10:34:21.544Z,36.99
2018-05-03T10:35:21.360Z,36.92
2018-05-03T10:36:22.497Z,36.89
2018-05-03T10:37:21.962Z,36.88
2018-05-03T10:38:22.217Z,36.7
2018-05-03T10:39:22.575Z,36.51
2018-05-03T10:40:23.065Z,36.49
2018-05-03T10:41:23.263Z,36.39
2018-05-03T10:42:23.679Z,36.24
2018-05-03T10:43:23.496Z,36.28
2018-05-03T10:44:23.596Z,36.3
2018-05-03T10:45:23.401Z,36.22
2018-05-03T10:46:23.562Z,35.77
2018-05-03T10:47:23.985Z,35.46
2018-05-03T10:48:24.018Z,35.27
2018-05-03T10:49:23.843Z,35.2
2018-05-03T10:50:24.162Z,35.13
2018-05-03T10:51:24.685Z,35.18
2018-05-03T10:52:24.770Z,35.28
2018-05-03T10:53:24.674Z,35.34
2018-05-03T10:54:24.855Z,35.4
2018-05-03T10:55:24.881Z,35.3
2018-05-03T10:56:24.947Z,35.35
2018-05-03T10:57:24.919Z,35.49
2018-05-03T10:58:24.863Z,35.33
2018-05-03T10:59:25.624Z,35.33
2018-05-03T11:00:25.126Z,35.11
2018-05-03T11:01:25.571Z,34.94
2018-05-03T11:02:25.947Z,34.97
2018-05-03T11:03:25.757Z,34.9
2018-05-03T11:04:26.438Z,34.81
2018-05-03T11:05:26.644Z,34.61
2018-05-03T11:06:26.653Z,34.59
2018-05-03T11:07:26.704Z,34.37
2018-05-03T11:08:26.718Z,34.17
2018-05-03T11:09:26.849Z,33.83
2018-05-03T11:10:27.260Z,33.48
2018-05-03T11:11:27.992Z,33.11
2018-05-03T11:12:27.891Z,32.9
2018-05-03T11:13:28.576Z,32.46
2018-05-03T11:14:28.361Z,31.97
2018-05-03T11:15:29.315Z,31.6
2018-05-03T11:16:29.133Z,31.16
2018-05-03T11:17:28.864Z,31.25
2018-05-03T11:18:29.351Z,31.1
2018-05-03T11:19:29.250Z,30.85
2018-05-03T11:20:29.305Z,30.57
2018-05-03T11:21:29.038Z,30.34
2018-05-03T11:22:29.438Z,29.95
2018-05-03T11:23:29.314Z,29.69
2018-05-03T11:24:29.884Z,29.67
2018-05-03T11:25:30.032Z,29.3
2018-05-03T11:26:30.475Z,29.02
2018-05-03T11:27:30.804Z,28.57
2018-05-03T11:28:30.800Z,28.36
2018-05-03T11:29:31.208Z,27.93
2018-05-03T11:30:31.530Z,27.8
2018-05-03T11:31:31.776Z,27.72
2018-05-03T11:32:32.023Z,27.38
2018-05-03T11:33:32.476Z,27.26
2018-05-03T11:34:32.417Z,27.12
2018-05-03T11:35:32.747Z,26.89
2018-05-03T11:36:32.514Z,26.75
2018-05-03T11:37:32.572Z,26.52
2018-05-03T11:38:32.869Z,26.52
2018-05-03T11:39:32.946Z,26.32
2018-05-03T11:40:33.324Z,26
2018-05-03T11:41:33.490Z,25.66
2018-05-03T11:42:33.323Z,25.48
2018-05-03T11:43:33.529Z,25.33
2018-05-03T11:44:33.860Z,24.93
2018-05-03T11:45:34.935Z,24.58
2018-05-03T11:46:34.096Z,24.26
2018-05-03T11:47:34.825Z,24.04
2018-05-03T11:48:34.020Z,23.85
2018-05-03T11:49:33.898Z,23.75
2018-05-03T11:50:34.601Z,23.66
2018-05-03T11:51:34.655Z,23.44
2018-05-03T11:52:35.085Z,23.45
2018-05-03T11:53:35.267Z,23.42
2018-05-03T11:54:35.275Z,23.42
2018-05-03T11:55:36.016Z,23.47
2018-05-03T11:56:35.751Z,23.38
2018-05-03T11:57:36.455Z,23.24
2018-05-03T11:58:36.617Z,23.18
2018-05-03T11:59:36.701Z,22.99
2018-05-03T12:00:38.711Z,22.97
2018-05-03T12:01:38.439Z,22.89
2018-05-03T12:02:36.091Z,22.69
2018-05-03T12:03:36.404Z,22.7
2018-05-03T12:04:36.832Z,22.6
2018-05-03T12:05:36.585Z,22.69
2018-05-03T12:06:36.627Z,22.76
2018-05-03T12:07:37.068Z,22.71
2018-05-03T12:08:37.058Z,22.59
2018-05-03T12:09:37.102Z,22.6
2018-05-03T12:10:37.150Z,22.64
2018-05-03T12:11:36.902Z,22.69
2018-05-03T12:12:37.392Z,22.45
2018-05-03T12:13:37.834Z,22.46
2018-05-03T12:14:37.822Z,22.46
2018-05-03T12:15:37.864Z,22.44
2018-05-03T12:16:37.974Z,22.54
2018-05-03T12:17:38.090Z,22.46
2018-05-03T12:18:38.223Z,22.44
2018-05-03T12:19:38.006Z,22.41
2018-05-03T12:20:38.304Z,22.42
2018-05-03T12:21:38.326Z,22.39
2018-05-03T12:22:38.480Z,22.16
2018-05-03T12:23:38.723Z,22.09
2018-05-03T12:24:39.076Z,22.02
2018-05-03T12:25:39.715Z,21.92
2018-05-03T12:26:39.493Z,21.89
2018-05-03T12:27:39.892Z,21.8
2018-05-03T12:28:39.959Z,21.71
2018-05-03T12:29:39.956Z,21.62
2018-05-03T12:30:39.999Z,21.74
2018-05-03T12:31:40.406Z,21.61
2018-05-03T12:32:40.190Z,21.59
2018-05-03T12:33:40.845Z,21.73
2018-05-03T12:34:41.233Z,21.76
2018-05-03T12:35:41.009Z,21.68
2018-05-03T12:36:41.488Z,21.71
2018-05-03T12:37:41.607Z,21.67
2018-05-03T12:38:41.135Z,21.64
2018-05-03T12:39:41.796Z,21.68
2018-05-03T12:40:42.145Z,21.55
2018-05-03T12:41:41.920Z,21.53
2018-05-03T12:42:42.328Z,21.41
2018-05-03T12:43:42.624Z,21.37
2018-05-03T12:44:42.723Z,21.25
2018-05-03T12:45:42.892Z,21.3
2018-05-03T12:46:42.618Z,21.21
2018-05-03T12:47:43.255Z,21.09
2018-05-03T12:48:43.288Z,20.91
2018-05-03T12:49:43.686Z,20.82
2018-05-03T12:50:43.903Z,20.71
2018-05-03T12:51:44.410Z,20.56
2018-05-03T12:52:44.349Z,20.57
2018-05-03T12:53:44.054Z,20.51
2018-05-03T12:54:44.452Z,20.49
2018-05-03T12:55:44.753Z,20.37
2018-05-03T12:56:44.532Z,20.41
2018-05-03T12:57:44.903Z,20.34
2018-05-03T12:58:45.236Z,20.46
2018-05-03T12:59:45.275Z,20.41
2018-05-03T13:00:45.834Z,20.38
2018-05-03T13:01:45.453Z,20.4
2018-05-03T13:02:45.517Z,20.26
2018-05-03T13:03:46.148Z,20.27
2018-05-03T13:04:46.153Z,20.38
2018-05-03T13:05:46.489Z,20.41
2018-05-03T13:06:46.204Z,20.38
2018-05-03T13:07:46.263Z,20.38
2018-05-03T13:08:46.290Z,20.29
2018-05-03T13:09:46.846Z,20.34
2018-05-03T13:10:46.968Z,20.4
2018-05-03T13:11:46.627Z,20.37
2018-05-03T13:12:47.346Z,20.37
2018-05-03T13:13:46.869Z,20.4
2018-05-03T13:14:46.892Z,20.4
2018-05-03T13:15:47.392Z,20.41
2018-05-03T13:16:47.866Z,20.41
2018-05-03T13:17:47.926Z,20.4
2018-05-03T13:18:48.198Z,20.32
2018-05-03T13:19:48.217Z,20.2
2018-05-03T13:20:47.954Z,20.22
2018-05-03T13:21:48.225Z,20.26
2018-05-03T13:22:48.432Z,20.4
2018-05-03T13:23:48.757Z,20.3
2018-05-03T13:24:49.168Z,20.34
2018-05-03T13:25:49.538Z,20.29
2018-05-03T13:26:49.102Z,20.3
2018-05-03T13:27:48.449Z,20.29
2018-05-03T13:28:48.813Z,20.32
2018-05-03T13:29:49.579Z,20.29
2018-05-03T13:30:49.385Z,20.29
2018-05-03T13:31:49.422Z,20.32
2018-05-03T13:32:49.409Z,20.3
2018-05-03T13:33:49.158Z,20.32
2018-05-03T13:34:49.480Z,20.12
2018-05-03T13:35:50.030Z,20.04
2018-05-03T13:36:49.666Z,19.98
2018-05-03T13:37:49.864Z,20.1
2018-05-03T13:38:49.624Z,20.07
2018-05-03T13:39:49.408Z,20.01
2018-05-03T13:40:49.713Z,20.08
2018-05-03T13:41:49.718Z,20.04
2018-05-03T13:42:49.744Z,20.1
2018-05-03T13:43:50.180Z,20.01
2018-05-03T13:44:50.246Z,19.9
2018-05-03T13:45:50.584Z,19.87
2018-05-03T13:46:50.022Z,20
2018-05-03T13:47:50.068Z,20.05
2018-05-03T13:48:50.525Z,20
2018-05-03T13:49:50.851Z,20.12
2018-05-03T13:50:50.384Z,20.16
2018-05-03T13:51:50.906Z,20.15
2018-05-03T13:52:51.001Z,20.04
2018-05-03T13:53:50.481Z,20.04
2018-05-03T13:54:50.849Z,19.87
2018-05-03T13:55:51.105Z,19.85
2018-05-03T13:56:51.425Z,19.68